sensor_id;sensor_type;location;lat;lon;timestamp;P1;durP1;ratioP1;P2;durP2;ratioP2
41167;SDS011;26906;45.658;9.272;2022-08-19T04:33:51;6.28;;;3.47;;
41167;SDS011;26906;45.658;9.272;2022-08-19T04:36:24;8.02;;;3.85;;
41167;SDS011;26906;45.658;9.272;2022-08-19T04:39:02;5.13;;;3.78;;
41167;SDS011;26906;45.658;9.272;2022-08-19T04:41:29;6.88;;;4.15;;
41167;SDS011;26906;45.658;9.272;2022-08-19T04:44:14;7.38;;;4.07;;
41167;SDS011;26906;45.658;9.272;2022-08-19T04:46:43;6.35;;;3.85;;
41167;SDS011;26906;45.658;9.272;2022-08-19T04:49:10;4.70;;;4.20;;
41167;SDS011;26906;45.658;9.272;2022-08-19T04:51:36;7.47;;;3.97;;
41167;SDS011;26906;45.658;9.272;2022-08-19T04:54:07;6.75;;;3.80;;
41167;SDS011;26906;45.658;9.272;2022-08-19T04:56:33;9.40;;;3.58;;
41167;SDS011;26906;45.658;9.272;2022-08-19T04:59:02;5.50;;;3.90;;
41167;SDS011;26906;45.658;9.272;2022-08-19T05:01:31;8.05;;;3.60;;
41167;SDS011;26906;45.658;9.272;2022-08-19T05:03:58;5.00;;;3.63;;
41167;SDS011;26906;45.658;9.272;2022-08-19T05:06:26;9.77;;;4.25;;
41167;SDS011;26906;45.658;9.272;2022-08-19T05:08:53;7.78;;;3.70;;
41167;SDS011;26906;45.658;9.272;2022-08-19T05:11:27;7.93;;;3.90;;
41167;SDS011;26906;45.658;9.272;2022-08-19T05:13:55;11.20;;;4.18;;
41167;SDS011;26906;45.658;9.272;2022-08-19T05:16:22;5.15;;;4.10;;
41167;SDS011;26906;45.658;9.272;2022-08-19T05:18:51;9.27;;;4.20;;
41167;SDS011;26906;45.658;9.272;2022-08-19T05:21:35;5.05;;;3.78;;
41167;SDS011;26906;45.658;9.272;2022-08-19T05:24:21;8.93;;;4.68;;
41167;SDS011;26906;45.658;9.272;2022-08-19T05:26:48;6.88;;;3.60;;
41167;SDS011;26906;45.658;9.272;2022-08-19T05:29:16;4.68;;;3.35;;
41167;SDS011;26906;45.658;9.272;2022-08-19T05:31:46;6.53;;;4.15;;
41167;SDS011;26906;45.658;9.272;2022-08-19T05:34:14;6.18;;;4.03;;
41167;SDS011;26906;45.658;9.272;2022-08-19T05:36:42;6.22;;;4.10;;
41167;SDS011;26906;45.658;9.272;2022-08-19T05:39:15;7.28;;;4.47;;
41167;SDS011;26906;45.658;9.272;2022-08-19T05:41:43;15.48;;;5.22;;
41167;SDS011;26906;45.658;9.272;2022-08-19T05:44:22;19.02;;;5.32;;
41167;SDS011;26906;45.658;9.272;2022-08-19T05:46:49;19.27;;;5.85;;
41167;SDS011;26906;45.658;9.272;2022-08-19T05:49:17;12.27;;;4.75;;
41167;SDS011;26906;45.658;9.272;2022-08-19T05:51:44;13.63;;;4.65;;
41167;SDS011;26906;45.658;9.272;2022-08-19T05:54:10;10.38;;;5.13;;
41167;SDS011;26906;45.658;9.272;2022-08-19T05:56:42;10.00;;;4.68;;
41167;SDS011;26906;45.658;9.272;2022-08-19T05:59:09;10.10;;;4.57;;
41167;SDS011;26906;45.658;9.272;2022-08-19T06:01:37;9.98;;;4.03;;
41167;SDS011;26906;45.658;9.272;2022-08-19T06:04:05;11.93;;;4.50;;
41167;SDS011;26906;45.658;9.272;2022-08-19T06:06:31;10.15;;;4.50;;
41167;SDS011;26906;45.658;9.272;2022-08-19T06:09:04;13.30;;;4.32;;
41167;SDS011;26906;45.658;9.272;2022-08-19T06:11:33;6.20;;;3.60;;
41167;SDS011;26906;45.658;9.272;2022-08-19T06:14:10;6.50;;;3.72;;
41167;SDS011;26906;45.658;9.272;2022-08-19T06:16:39;9.23;;;4.15;;
41167;SDS011;26906;45.658;9.272;2022-08-19T06:19:07;7.13;;;3.88;;
41167;SDS011;26906;45.658;9.272;2022-08-19T06:21:37;6.65;;;3.88;;
41167;SDS011;26906;45.658;9.272;2022-08-19T06:24:06;6.70;;;3.65;;
41167;SDS011;26906;45.658;9.272;2022-08-19T06:26:34;8.52;;;4.47;;
41167;SDS011;26906;45.658;9.272;2022-08-19T06:29:02;8.98;;;4.47;;
41167;SDS011;26906;45.658;9.272;2022-08-19T06:31:32;9.10;;;4.80;;
41167;SDS011;26906;45.658;9.272;2022-08-19T06:34:04;6.65;;;4.20;;
41167;SDS011;26906;45.658;9.272;2022-08-19T06:36:32;6.65;;;4.22;;
41167;SDS011;26906;45.658;9.272;2022-08-19T06:39:04;7.40;;;4.43;;
41167;SDS011;26906;45.658;9.272;2022-08-19T06:41:37;5.50;;;4.10;;
41167;SDS011;26906;45.658;9.272;2022-08-19T06:46:32;9.27;;;4.80;;
41167;SDS011;26906;45.658;9.272;2022-08-19T06:48:58;5.45;;;4.30;;
41167;SDS011;26906;45.658;9.272;2022-08-19T06:51:24;7.95;;;4.28;;
41167;SDS011;26906;45.658;9.272;2022-08-19T06:53:52;9.52;;;5.07;;
41167;SDS011;26906;45.658;9.272;2022-08-19T06:56:20;10.75;;;4.82;;
41167;SDS011;26906;45.658;9.272;2022-08-19T06:58:50;8.95;;;5.18;;
41167;SDS011;26906;45.658;9.272;2022-08-19T07:01:18;7.28;;;4.57;;
41167;SDS011;26906;45.658;9.272;2022-08-19T07:03:45;7.32;;;5.53;;
41167;SDS011;26906;45.658;9.272;2022-08-19T07:06:16;6.90;;;5.13;;
41167;SDS011;26906;45.658;9.272;2022-08-19T07:08:43;6.75;;;5.55;;
41167;SDS011;26906;45.658;9.272;2022-08-19T07:11:14;7.57;;;5.25;;
41167;SDS011;26906;45.658;9.272;2022-08-19T07:13:43;9.25;;;5.55;;
41167;SDS011;26906;45.658;9.272;2022-08-19T07:16:14;9.93;;;5.70;;
41167;SDS011;26906;45.658;9.272;2022-08-19T07:18:42;6.63;;;5.72;;
41167;SDS011;26906;45.658;9.272;2022-08-19T07:21:26;9.32;;;5.82;;
41167;SDS011;26906;45.658;9.272;2022-08-19T07:23:54;7.30;;;4.93;;
41167;SDS011;26906;45.658;9.272;2022-08-19T07:26:26;13.48;;;6.43;;
41167;SDS011;26906;45.658;9.272;2022-08-19T07:28:54;10.07;;;5.70;;
41167;SDS011;26906;45.658;9.272;2022-08-19T07:31:22;9.18;;;6.72;;
41167;SDS011;26906;45.658;9.272;2022-08-19T07:33:50;9.55;;;5.78;;
41167;SDS011;26906;45.658;9.272;2022-08-19T07:36:22;7.10;;;6.32;;
41167;SDS011;26906;45.658;9.272;2022-08-19T07:38:52;8.60;;;6.10;;
41167;SDS011;26906;45.658;9.272;2022-08-19T07:41:21;10.68;;;6.43;;
41167;SDS011;26906;45.658;9.272;2022-08-19T07:43:49;7.15;;;5.25;;
41167;SDS011;26906;45.658;9.272;2022-08-19T07:46:15;7.95;;;5.68;;
41167;SDS011;26906;45.658;9.272;2022-08-19T07:48:42;8.85;;;5.40;;
41167;SDS011;26906;45.658;9.272;2022-08-19T07:51:12;7.13;;;3.97;;
41167;SDS011;26906;45.658;9.272;2022-08-19T07:53:39;5.95;;;4.35;;
41167;SDS011;26906;45.658;9.272;2022-08-19T07:56:05;8.00;;;5.30;;
41167;SDS011;26906;45.658;9.272;2022-08-19T07:58:32;5.47;;;4.43;;
41167;SDS011;26906;45.658;9.272;2022-08-19T08:01:00;9.65;;;5.35;;
41167;SDS011;26906;45.658;9.272;2022-08-19T08:03:27;9.27;;;5.63;;
41167;SDS011;26906;45.658;9.272;2022-08-19T08:06:13;5.88;;;4.60;;
41167;SDS011;26906;45.658;9.272;2022-08-19T08:08:58;9.77;;;4.90;;
41167;SDS011;26906;45.658;9.272;2022-08-19T08:11:59;7.65;;;4.85;;
41167;SDS011;26906;45.658;9.272;2022-08-19T08:17:23;6.38;;;5.03;;
41167;SDS011;26906;45.658;9.272;2022-08-19T08:19:51;8.43;;;4.93;;
41167;SDS011;26906;45.658;9.272;2022-08-19T08:22:18;13.57;;;5.63;;
41167;SDS011;26906;45.658;9.272;2022-08-19T08:25:05;7.65;;;4.88;;
41167;SDS011;26906;45.658;9.272;2022-08-19T08:27:37;8.27;;;5.35;;
41167;SDS011;26906;45.658;9.272;2022-08-19T08:30:08;7.30;;;5.07;;
41167;SDS011;26906;45.658;9.272;2022-08-19T08:32:36;7.13;;;3.80;;
41167;SDS011;26906;45.658;9.272;2022-08-19T08:35:04;6.22;;;2.80;;
41167;SDS011;26906;45.658;9.272;2022-08-19T08:37:31;4.80;;;2.50;;
41167;SDS011;26906;45.658;9.272;2022-08-19T08:39:57;3.42;;;1.95;;
41167;SDS011;26906;45.658;9.272;2022-08-19T08:42:29;4.60;;;2.05;;
41167;SDS011;26906;45.658;9.272;2022-08-19T08:45:05;2.65;;;1.60;;
41167;SDS011;26906;45.658;9.272;2022-08-19T08:47:38;4.88;;;1.92;;
41167;SDS011;26906;45.658;9.272;2022-08-19T08:50:08;5.65;;;2.40;;
41167;SDS011;26906;45.658;9.272;2022-08-19T08:55:18;5.05;;;2.13;;
41167;SDS011;26906;45.658;9.272;2022-08-19T09:00:35;7.85;;;2.90;;
41167;SDS011;26906;45.658;9.272;2022-08-19T09:03:00;7.00;;;2.60;;
41167;SDS011;26906;45.658;9.272;2022-08-19T09:05:38;6.32;;;2.70;;
41167;SDS011;26906;45.658;9.272;2022-08-19T09:08:17;4.43;;;2.35;;
41167;SDS011;26906;45.658;9.272;2022-08-19T09:10:51;4.50;;;2.30;;
41167;SDS011;26906;45.658;9.272;2022-08-19T09:16:22;4.07;;;1.88;;
41167;SDS011;26906;45.658;9.272;2022-08-19T09:18:54;5.45;;;2.35;;
41167;SDS011;26906;45.658;9.272;2022-08-19T09:21:25;5.03;;;2.72;;
41167;SDS011;26906;45.658;9.272;2022-08-19T09:23:52;5.57;;;2.80;;
41167;SDS011;26906;45.658;9.272;2022-08-19T09:26:19;6.10;;;2.95;;
41167;SDS011;26906;45.658;9.272;2022-08-19T09:28:50;5.80;;;2.65;;
41167;SDS011;26906;45.658;9.272;2022-08-19T09:31:22;6.10;;;2.53;;
41167;SDS011;26906;45.658;9.272;2022-08-19T09:33:50;6.93;;;2.30;;
41167;SDS011;26906;45.658;9.272;2022-08-19T09:36:17;7.43;;;2.70;;
41167;SDS011;26906;45.658;9.272;2022-08-19T09:38:48;7.05;;;2.67;;
41167;SDS011;26906;45.658;9.272;2022-08-19T09:41:15;4.90;;;2.60;;
41167;SDS011;26906;45.658;9.272;2022-08-19T09:43:44;5.85;;;3.65;;
41167;SDS011;26906;45.658;9.272;2022-08-19T09:46:12;4.93;;;2.33;;
41167;SDS011;26906;45.658;9.272;2022-08-19T09:48:41;5.22;;;2.90;;
41167;SDS011;26906;45.658;9.272;2022-08-19T09:51:08;6.38;;;2.53;;
41167;SDS011;26906;45.658;9.272;2022-08-19T09:53:36;4.88;;;2.67;;
41167;SDS011;26906;45.658;9.272;2022-08-19T09:56:05;5.68;;;3.22;;
41167;SDS011;26906;45.658;9.272;2022-08-19T09:58:32;7.55;;;2.72;;
41167;SDS011;26906;45.658;9.272;2022-08-19T10:01:00;4.43;;;3.10;;
41167;SDS011;26906;45.658;9.272;2022-08-19T10:03:27;5.78;;;3.15;;
41167;SDS011;26906;45.658;9.272;2022-08-19T10:05:55;6.15;;;3.10;;
41167;SDS011;26906;45.658;9.272;2022-08-19T10:08:23;10.48;;;3.00;;
41167;SDS011;26906;45.658;9.272;2022-08-19T10:10:54;5.45;;;2.95;;
41167;SDS011;26906;45.658;9.272;2022-08-19T10:13:22;5.68;;;2.50;;
41167;SDS011;26906;45.658;9.272;2022-08-19T10:15:50;5.13;;;2.17;;
41167;SDS011;26906;45.658;9.272;2022-08-19T10:18:18;10.15;;;2.60;;
41167;SDS011;26906;45.658;9.272;2022-08-19T10:20:46;6.47;;;2.60;;
41167;SDS011;26906;45.658;9.272;2022-08-19T10:23:13;5.28;;;2.60;;
41167;SDS011;26906;45.658;9.272;2022-08-19T10:25:40;8.50;;;3.60;;
41167;SDS011;26906;45.658;9.272;2022-08-19T10:28:07;30.92;;;12.75;;
41167;SDS011;26906;45.658;9.272;2022-08-19T10:30:37;8.00;;;4.13;;
41167;SDS011;26906;45.658;9.272;2022-08-19T10:33:05;14.13;;;4.97;;
41167;SDS011;26906;45.658;9.272;2022-08-19T10:35:31;9.50;;;3.80;;
41167;SDS011;26906;45.658;9.272;2022-08-19T10:37:57;6.28;;;3.40;;
41167;SDS011;26906;45.658;9.272;2022-08-19T10:40:28;6.60;;;3.00;;
41167;SDS011;26906;45.658;9.272;2022-08-19T10:42:54;7.60;;;2.85;;
41167;SDS011;26906;45.658;9.272;2022-08-19T10:45:21;4.82;;;2.25;;
41167;SDS011;26906;45.658;9.272;2022-08-19T10:47:51;4.55;;;2.10;;
41167;SDS011;26906;45.658;9.272;2022-08-19T10:50:18;4.85;;;2.50;;
41167;SDS011;26906;45.658;9.272;2022-08-19T10:53:06;5.50;;;2.20;;
41167;SDS011;26906;45.658;9.272;2022-08-19T10:55:35;3.83;;;2.38;;
41167;SDS011;26906;45.658;9.272;2022-08-19T10:58:21;6.63;;;2.63;;
41167;SDS011;26906;45.658;9.272;2022-08-19T11:00:57;8.27;;;3.05;;
41167;SDS011;26906;45.658;9.272;2022-08-19T11:03:24;5.50;;;2.30;;
41167;SDS011;26906;45.658;9.272;2022-08-19T11:05:59;4.93;;;2.28;;
41167;SDS011;26906;45.658;9.272;2022-08-19T11:08:30;4.53;;;2.25;;
41167;SDS011;26906;45.658;9.272;2022-08-19T11:11:01;4.68;;;2.75;;
41167;SDS011;26906;45.658;9.272;2022-08-19T11:13:29;9.68;;;2.03;;
41167;SDS011;26906;45.658;9.272;2022-08-19T11:15:57;4.53;;;2.35;;
41167;SDS011;26906;45.658;9.272;2022-08-19T11:18:28;3.78;;;2.10;;
41167;SDS011;26906;45.658;9.272;2022-08-19T11:20:54;5.78;;;2.50;;
41167;SDS011;26906;45.658;9.272;2022-08-19T11:23:19;3.58;;;2.40;;
41167;SDS011;26906;45.658;9.272;2022-08-19T11:25:48;3.53;;;2.33;;
41167;SDS011;26906;45.658;9.272;2022-08-19T11:28:14;4.65;;;2.13;;
41167;SDS011;26906;45.658;9.272;2022-08-19T11:30:40;5.13;;;1.75;;
41167;SDS011;26906;45.658;9.272;2022-08-19T11:33:06;6.45;;;2.13;;
41167;SDS011;26906;45.658;9.272;2022-08-19T11:35:31;4.05;;;1.65;;
41167;SDS011;26906;45.658;9.272;2022-08-19T11:37:58;4.53;;;1.80;;
41167;SDS011;26906;45.658;9.272;2022-08-19T11:40:26;6.03;;;1.80;;
41167;SDS011;26906;45.658;9.272;2022-08-19T11:42:52;4.88;;;1.98;;
41167;SDS011;26906;45.658;9.272;2022-08-19T11:45:24;6.47;;;1.90;;
41167;SDS011;26906;45.658;9.272;2022-08-19T11:47:54;2.60;;;1.88;;
41167;SDS011;26906;45.658;9.272;2022-08-19T11:50:20;6.03;;;1.92;;
41167;SDS011;26906;45.658;9.272;2022-08-19T11:52:48;3.03;;;1.90;;
41167;SDS011;26906;45.658;9.272;2022-08-19T11:55:14;6.43;;;2.03;;
41167;SDS011;26906;45.658;9.272;2022-08-19T11:57:41;6.30;;;1.52;;
41167;SDS011;26906;45.658;9.272;2022-08-19T12:00:09;4.03;;;1.65;;
41167;SDS011;26906;45.658;9.272;2022-08-19T12:02:37;3.30;;;1.77;;
41167;SDS011;26906;45.658;9.272;2022-08-19T12:05:03;4.55;;;1.77;;
41167;SDS011;26906;45.658;9.272;2022-08-19T12:07:32;3.83;;;1.80;;
41167;SDS011;26906;45.658;9.272;2022-08-19T12:09:59;4.47;;;1.70;;
41167;SDS011;26906;45.658;9.272;2022-08-19T12:12:25;3.45;;;1.50;;
41167;SDS011;26906;45.658;9.272;2022-08-19T12:14:52;3.97;;;2.00;;
41167;SDS011;26906;45.658;9.272;2022-08-19T12:17:27;5.03;;;1.77;;
41167;SDS011;26906;45.658;9.272;2022-08-19T12:19:53;2.50;;;1.25;;
41167;SDS011;26906;45.658;9.272;2022-08-19T12:22:21;5.90;;;2.10;;
41167;SDS011;26906;45.658;9.272;2022-08-19T12:24:47;5.78;;;1.60;;
41167;SDS011;26906;45.658;9.272;2022-08-19T12:27:16;4.10;;;1.67;;
41167;SDS011;26906;45.658;9.272;2022-08-19T12:29:43;4.32;;;1.25;;
41167;SDS011;26906;45.658;9.272;2022-08-19T12:32:08;4.22;;;1.50;;
41167;SDS011;26906;45.658;9.272;2022-08-19T12:34:36;3.08;;;1.52;;
41167;SDS011;26906;45.658;9.272;2022-08-19T12:37:03;5.25;;;1.75;;
41167;SDS011;26906;45.658;9.272;2022-08-19T12:39:34;2.72;;;1.73;;
41167;SDS011;26906;45.658;9.272;2022-08-19T12:42:04;4.25;;;1.30;;
41167;SDS011;26906;45.658;9.272;2022-08-19T12:44:32;6.65;;;1.50;;
41167;SDS011;26906;45.658;9.272;2022-08-19T12:46:58;4.95;;;2.25;;
41167;SDS011;26906;45.658;9.272;2022-08-19T12:49:24;2.63;;;1.20;;
41167;SDS011;26906;45.658;9.272;2022-08-19T12:51:51;3.40;;;1.30;;
41167;SDS011;26906;45.658;9.272;2022-08-19T12:54:17;4.05;;;1.35;;
41167;SDS011;26906;45.658;9.272;2022-08-19T12:56:46;3.45;;;1.10;;
41167;SDS011;26906;45.658;9.272;2022-08-19T12:59:12;3.53;;;1.50;;
41167;SDS011;26906;45.658;9.272;2022-08-19T13:01:41;3.65;;;1.20;;
41167;SDS011;26906;45.658;9.272;2022-08-19T13:04:09;3.05;;;1.40;;
41167;SDS011;26906;45.658;9.272;2022-08-19T13:06:35;4.63;;;1.10;;
41167;SDS011;26906;45.658;9.272;2022-08-19T13:09:01;2.58;;;0.65;;
41167;SDS011;26906;45.658;9.272;2022-08-19T13:11:28;1.40;;;0.68;;
41167;SDS011;26906;45.658;9.272;2022-08-19T13:13:57;2.45;;;0.77;;
41167;SDS011;26906;45.658;9.272;2022-08-19T13:16:24;0.73;;;0.63;;
41167;SDS011;26906;45.658;9.272;2022-08-19T13:18:52;1.60;;;0.60;;
41167;SDS011;26906;45.658;9.272;2022-08-19T13:21:19;1.00;;;0.50;;
41167;SDS011;26906;45.658;9.272;2022-08-19T13:23:49;1.05;;;0.50;;
41167;SDS011;26906;45.658;9.272;2022-08-19T13:26:16;1.75;;;0.73;;
41167;SDS011;26906;45.658;9.272;2022-08-19T13:28:43;3.05;;;0.68;;
41167;SDS011;26906;45.658;9.272;2022-08-19T13:31:28;2.83;;;0.77;;
41167;SDS011;26906;45.658;9.272;2022-08-19T13:34:16;2.47;;;0.80;;
41167;SDS011;26906;45.658;9.272;2022-08-19T13:36:48;1.45;;;0.60;;
41167;SDS011;26906;45.658;9.272;2022-08-19T13:39:15;0.82;;;0.50;;
41167;SDS011;26906;45.658;9.272;2022-08-19T13:41:44;2.08;;;0.63;;
41167;SDS011;26906;45.658;9.272;2022-08-19T13:44:26;1.73;;;0.55;;
41167;SDS011;26906;45.658;9.272;2022-08-19T13:46:55;1.08;;;0.43;;
41167;SDS011;26906;45.658;9.272;2022-08-19T13:49:34;3.92;;;0.47;;
41167;SDS011;26906;45.658;9.272;2022-08-19T13:52:02;2.00;;;0.50;;
41167;SDS011;26906;45.658;9.272;2022-08-19T13:54:30;1.88;;;0.45;;
41167;SDS011;26906;45.658;9.272;2022-08-19T13:56:56;3.13;;;0.80;;
41167;SDS011;26906;45.658;9.272;2022-08-19T13:59:23;1.30;;;0.43;;
41167;SDS011;26906;45.658;9.272;2022-08-19T14:01:49;2.25;;;0.55;;
41167;SDS011;26906;45.658;9.272;2022-08-19T14:04:15;1.90;;;0.50;;
41167;SDS011;26906;45.658;9.272;2022-08-19T14:06:41;1.77;;;0.52;;
41167;SDS011;26906;45.658;9.272;2022-08-19T14:09:08;2.22;;;0.50;;
41167;SDS011;26906;45.658;9.272;2022-08-19T14:11:33;0.50;;;0.40;;
41167;SDS011;26906;45.658;9.272;2022-08-19T14:13:59;1.10;;;0.55;;
41167;SDS011;26906;45.658;9.272;2022-08-19T14:16:26;1.50;;;0.40;;
41167;SDS011;26906;45.658;9.272;2022-08-19T14:18:52;1.20;;;0.40;;
41167;SDS011;26906;45.658;9.272;2022-08-19T14:21:21;1.85;;;0.60;;
41167;SDS011;26906;45.658;9.272;2022-08-19T14:23:50;1.70;;;0.40;;
41167;SDS011;26906;45.658;9.272;2022-08-19T14:26:17;1.67;;;0.45;;
41167;SDS011;26906;45.658;9.272;2022-08-19T14:28:45;0.68;;;0.35;;
41167;SDS011;26906;45.658;9.272;2022-08-19T14:31:11;0.52;;;0.32;;
41167;SDS011;26906;45.658;9.272;2022-08-19T14:33:41;1.75;;;0.60;;
41167;SDS011;26906;45.658;9.272;2022-08-19T14:36:08;1.42;;;0.40;;
41167;SDS011;26906;45.658;9.272;2022-08-19T14:38:35;1.33;;;0.43;;
41167;SDS011;26906;45.658;9.272;2022-08-19T14:41:05;2.92;;;0.50;;
41167;SDS011;26906;45.658;9.272;2022-08-19T14:43:36;1.27;;;0.50;;
41167;SDS011;26906;45.658;9.272;2022-08-19T14:46:03;0.45;;;0.35;;
41167;SDS011;26906;45.658;9.272;2022-08-19T14:48:29;1.23;;;0.50;;
41167;SDS011;26906;45.658;9.272;2022-08-19T14:50:55;4.10;;;0.40;;
41167;SDS011;26906;45.658;9.272;2022-08-19T14:53:24;2.08;;;0.60;;
41167;SDS011;26906;45.658;9.272;2022-08-19T14:55:53;2.55;;;0.30;;
41167;SDS011;26906;45.658;9.272;2022-08-19T14:58:19;1.55;;;0.40;;
41167;SDS011;26906;45.658;9.272;2022-08-19T15:00:45;0.65;;;0.40;;
41167;SDS011;26906;45.658;9.272;2022-08-19T15:03:10;0.40;;;0.28;;
41167;SDS011;26906;45.658;9.272;2022-08-19T15:05:38;1.55;;;0.30;;
41167;SDS011;26906;45.658;9.272;2022-08-19T15:08:05;2.58;;;0.40;;
41167;SDS011;26906;45.658;9.272;2022-08-19T15:10:32;0.73;;;0.40;;
41167;SDS011;26906;45.658;9.272;2022-08-19T15:12:58;1.08;;;0.50;;
41167;SDS011;26906;45.658;9.272;2022-08-19T15:15:24;0.95;;;0.30;;
41167;SDS011;26906;45.658;9.272;2022-08-19T15:17:52;0.60;;;0.30;;
41167;SDS011;26906;45.658;9.272;2022-08-19T15:20:19;0.80;;;0.40;;
41167;SDS011;26906;45.658;9.272;2022-08-19T15:22:47;1.52;;;0.30;;
41167;SDS011;26906;45.658;9.272;2022-08-19T15:25:13;0.52;;;0.35;;
41167;SDS011;26906;45.658;9.272;2022-08-19T15:27:41;1.42;;;0.38;;
41167;SDS011;26906;45.658;9.272;2022-08-19T15:30:08;2.80;;;0.40;;
41167;SDS011;26906;45.658;9.272;2022-08-19T15:32:36;3.33;;;0.38;;
41167;SDS011;26906;45.658;9.272;2022-08-19T15:35:04;1.13;;;0.40;;
41167;SDS011;26906;45.658;9.272;2022-08-19T15:37:31;1.08;;;0.40;;
41167;SDS011;26906;45.658;9.272;2022-08-19T15:39:58;1.65;;;0.40;;
41167;SDS011;26906;45.658;9.272;2022-08-19T15:42:23;1.65;;;0.32;;
41167;SDS011;26906;45.658;9.272;2022-08-19T15:44:51;0.38;;;0.28;;
41167;SDS011;26906;45.658;9.272;2022-08-19T15:47:18;0.50;;;0.30;;
41167;SDS011;26906;45.658;9.272;2022-08-19T15:49:44;0.50;;;0.20;;
41167;SDS011;26906;45.658;9.272;2022-08-19T15:52:10;0.30;;;0.20;;
41167;SDS011;26906;45.658;9.272;2022-08-19T15:54:37;1.83;;;0.40;;
41167;SDS011;26906;45.658;9.272;2022-08-19T15:57:04;0.40;;;0.20;;
41167;SDS011;26906;45.658;9.272;2022-08-19T15:59:48;1.63;;;0.45;;
41167;SDS011;26906;45.658;9.272;2022-08-19T16:02:33;0.68;;;0.32;;
41167;SDS011;26906;45.658;9.272;2022-08-19T16:05:19;2.55;;;0.40;;
41167;SDS011;26906;45.658;9.272;2022-08-19T16:08:06;0.88;;;0.30;;
41167;SDS011;26906;45.658;9.272;2022-08-19T16:10:34;0.45;;;0.30;;
41167;SDS011;26906;45.658;9.272;2022-08-19T16:13:02;0.38;;;0.32;;
41167;SDS011;26906;45.658;9.272;2022-08-19T16:15:30;1.75;;;0.35;;
41167;SDS011;26906;45.658;9.272;2022-08-19T16:17:58;1.55;;;0.40;;
41167;SDS011;26906;45.658;9.272;2022-08-19T16:20:27;0.93;;;0.30;;
41167;SDS011;26906;45.658;9.272;2022-08-19T16:22:55;0.10;;;0.10;;
41167;SDS011;26906;45.658;9.272;2022-08-19T16:25:24;1.23;;;0.30;;
41167;SDS011;26906;45.658;9.272;2022-08-19T16:27:54;0.20;;;0.17;;
41167;SDS011;26906;45.658;9.272;2022-08-19T16:30:22;0.47;;;0.20;;
41167;SDS011;26906;45.658;9.272;2022-08-19T16:32:48;0.30;;;0.13;;
41167;SDS011;26906;45.658;9.272;2022-08-19T16:35:13;1.52;;;0.30;;
41167;SDS011;26906;45.658;9.272;2022-08-19T16:37:41;1.23;;;0.30;;
41167;SDS011;26906;45.658;9.272;2022-08-19T16:40:09;1.05;;;0.13;;
41167;SDS011;26906;45.658;9.272;2022-08-19T16:42:35;0.40;;;0.20;;
41167;SDS011;26906;45.658;9.272;2022-08-19T16:45:00;0.20;;;0.20;;
41167;SDS011;26906;45.658;9.272;2022-08-19T16:47:29;1.00;;;0.20;;
41167;SDS011;26906;45.658;9.272;2022-08-19T16:49:55;2.30;;;0.10;;
41167;SDS011;26906;45.658;9.272;2022-08-19T16:52:21;1.60;;;0.35;;
41167;SDS011;26906;45.658;9.272;2022-08-19T16:54:50;0.20;;;0.10;;
41167;SDS011;26906;45.658;9.272;2022-08-19T16:57:16;0.38;;;0.10;;
41167;SDS011;26906;45.658;9.272;2022-08-19T16:59:43;0.77;;;0.20;;
41167;SDS011;26906;45.658;9.272;2022-08-19T17:02:12;0.52;;;0.20;;
41167;SDS011;26906;45.658;9.272;2022-08-19T17:04:40;0.40;;;0.25;;
41167;SDS011;26906;45.658;9.272;2022-08-19T17:07:08;0.20;;;0.20;;
41167;SDS011;26906;45.658;9.272;2022-08-19T17:09:34;0.30;;;0.17;;
41167;SDS011;26906;45.658;9.272;2022-08-19T17:12:01;1.00;;;0.20;;
41167;SDS011;26906;45.658;9.272;2022-08-19T17:14:26;1.63;;;0.20;;
41167;SDS011;26906;45.658;9.272;2022-08-19T17:16:52;0.60;;;0.30;;
41167;SDS011;26906;45.658;9.272;2022-08-19T17:19:18;2.20;;;0.55;;
41167;SDS011;26906;45.658;9.272;2022-08-19T17:21:43;0.50;;;0.20;;
41167;SDS011;26906;45.658;9.272;2022-08-19T17:24:09;1.13;;;0.22;;
41167;SDS011;26906;45.658;9.272;2022-08-19T17:26:35;0.82;;;0.60;;
41167;SDS011;26906;45.658;9.272;2022-08-19T17:29:02;1.67;;;0.70;;
41167;SDS011;26906;45.658;9.272;2022-08-19T17:31:30;2.30;;;0.60;;
41167;SDS011;26906;45.658;9.272;2022-08-19T17:33:57;2.55;;;0.63;;
41167;SDS011;26906;45.658;9.272;2022-08-19T17:36:26;0.93;;;0.60;;
41167;SDS011;26906;45.658;9.272;2022-08-19T17:38:57;1.73;;;0.90;;
41167;SDS011;26906;45.658;9.272;2022-08-19T17:41:25;1.92;;;0.90;;
41167;SDS011;26906;45.658;9.272;2022-08-19T17:43:52;5.35;;;1.05;;
41167;SDS011;26906;45.658;9.272;2022-08-19T17:46:17;0.95;;;0.75;;
41167;SDS011;26906;45.658;9.272;2022-08-19T17:48:48;2.97;;;0.90;;
41167;SDS011;26906;45.658;9.272;2022-08-19T17:51:20;2.35;;;0.90;;
41167;SDS011;26906;45.658;9.272;2022-08-19T17:54:05;2.75;;;0.90;;
41167;SDS011;26906;45.658;9.272;2022-08-19T17:56:36;1.90;;;0.82;;
41167;SDS011;26906;45.658;9.272;2022-08-19T17:59:03;2.30;;;0.75;;
41167;SDS011;26906;45.658;9.272;2022-08-19T18:01:29;1.30;;;0.70;;
41167;SDS011;26906;45.658;9.272;2022-08-19T18:03:59;2.33;;;0.90;;
41167;SDS011;26906;45.658;9.272;2022-08-19T18:06:26;1.27;;;0.75;;
41167;SDS011;26906;45.658;9.272;2022-08-19T18:08:52;4.10;;;1.35;;
41167;SDS011;26906;45.658;9.272;2022-08-19T18:11:18;0.98;;;0.60;;
41167;SDS011;26906;45.658;9.272;2022-08-19T18:13:44;1.83;;;1.00;;
41167;SDS011;26906;45.658;9.272;2022-08-19T18:16:10;1.75;;;1.00;;
41167;SDS011;26906;45.658;9.272;2022-08-19T18:18:40;2.33;;;0.80;;
41167;SDS011;26906;45.658;9.272;2022-08-19T18:21:08;2.03;;;1.00;;
41167;SDS011;26906;45.658;9.272;2022-08-19T18:23:34;2.47;;;0.95;;
41167;SDS011;26906;45.658;9.272;2022-08-19T18:26:01;5.60;;;1.10;;
41167;SDS011;26906;45.658;9.272;2022-08-19T18:28:28;1.90;;;1.00;;
41167;SDS011;26906;45.658;9.272;2022-08-19T18:30:54;3.33;;;1.00;;
41167;SDS011;26906;45.658;9.272;2022-08-19T18:33:20;2.42;;;1.15;;
41167;SDS011;26906;45.658;9.272;2022-08-19T18:35:47;3.97;;;1.45;;
41167;SDS011;26906;45.658;9.272;2022-08-19T18:38:16;1.85;;;1.20;;
41167;SDS011;26906;45.658;9.272;2022-08-19T18:41:02;2.40;;;1.15;;
41167;SDS011;26906;45.658;9.272;2022-08-19T18:43:47;2.08;;;1.30;;
41167;SDS011;26906;45.658;9.272;2022-08-19T18:46:33;2.85;;;1.13;;
41167;SDS011;26906;45.658;9.272;2022-08-19T18:49:25;3.03;;;1.08;;
41167;SDS011;26906;45.658;9.272;2022-08-19T18:51:57;3.13;;;1.20;;
41167;SDS011;26906;45.658;9.272;2022-08-19T18:54:24;4.45;;;1.27;;
41167;SDS011;26906;45.658;9.272;2022-08-19T18:56:50;4.93;;;1.77;;
41167;SDS011;26906;45.658;9.272;2022-08-19T18:59:26;3.08;;;1.17;;
41167;SDS011;26906;45.658;9.272;2022-08-19T19:04:22;5.35;;;1.58;;
41167;SDS011;26906;45.658;9.272;2022-08-19T19:06:51;3.90;;;1.85;;
41167;SDS011;26906;45.658;9.272;2022-08-19T19:09:19;2.67;;;1.20;;
41167;SDS011;26906;45.658;9.272;2022-08-19T19:11:47;2.38;;;1.40;;
41167;SDS011;26906;45.658;9.272;2022-08-19T19:14:17;1.60;;;1.50;;
41167;SDS011;26906;45.658;9.272;2022-08-19T19:16:49;4.20;;;2.00;;
41167;SDS011;26906;45.658;9.272;2022-08-19T19:19:15;2.42;;;1.92;;
41167;SDS011;26906;45.658;9.272;2022-08-19T19:21:46;3.28;;;1.77;;
41167;SDS011;26906;45.658;9.272;2022-08-19T19:24:14;3.53;;;2.47;;
41167;SDS011;26906;45.658;9.272;2022-08-19T19:26:48;10.05;;;2.47;;
41167;SDS011;26906;45.658;9.272;2022-08-19T19:29:15;5.05;;;2.65;;
41167;SDS011;26906;45.658;9.272;2022-08-19T19:31:44;2.97;;;2.22;;
41167;SDS011;26906;45.658;9.272;2022-08-19T19:34:11;6.88;;;2.47;;
41167;SDS011;26906;45.658;9.272;2022-08-19T19:36:40;8.60;;;2.55;;
41167;SDS011;26906;45.658;9.272;2022-08-19T19:39:06;5.15;;;2.40;;
41167;SDS011;26906;45.658;9.272;2022-08-19T19:41:34;4.80;;;2.67;;
41167;SDS011;26906;45.658;9.272;2022-08-19T19:44:01;3.42;;;2.42;;
41167;SDS011;26906;45.658;9.272;2022-08-19T19:46:28;3.90;;;2.50;;
41167;SDS011;26906;45.658;9.272;2022-08-19T19:48:55;4.40;;;2.40;;